Time;durP1;ratioP1;P1;durP2;ratioP2;P2;SDS_P1;SDS_P2;PMS_P1;PMS_P2;Temp;Humidity;BMP_temperature;BMP_pressure;BME280_temperature;BME280_humidity;BME280_pressure;Samples;Min_cycle;Max_cycle;Signal;HPM_P1;HPM_P2
2022/08/17 00:00:28;;;;;;;19.13;17.52;;;21.40;60.30;;;;;;5098429;28;20042;-66
2022/08/17 00:03:03;;;;;;;19.02;17.23;;;21.40;60.50;;;;;;5099008;28;20043;-68
2022/08/17 00:05:32;;;;;;;19.05;17.35;;;21.40;60.60;;;;;;5098398;28;20126;-68
2022/08/17 00:07:58;;;;;;;17.25;15.68;;;21.40;60.70;;;;;;5097887;28;20077;-66
2022/08/17 00:10:23;;;;;;;22.48;20.23;;;21.30;60.70;;;;;;5098099;28;20048;-68
2022/08/17 00:12:50;;;;;;;23.90;21.80;;;21.30;61.10;;;;;;5081269;28;20055;-70
2022/08/17 00:15:19;;;;;;;19.42;17.63;;;21.30;61.50;;;;;;5098920;28;20043;-69
2022/08/17 00:17:47;;;;;;;19.55;17.95;;;21.20;61.50;;;;;;5116174;28;20442;-68
2022/08/17 00:20:13;;;;;;;20.10;18.30;;;21.20;61.70;;;;;;5097152;28;20050;-65
2022/08/17 00:27:50;;;;;;;19.73;18.02;;;21.00;62.10;;;;;;5205232;22;20050;-72
2022/08/17 00:30:15;;;;;;;20.60;18.73;;;21.00;62.20;;;;;;4997001;28;20043;-68
2022/08/17 00:32:46;;;;;;;21.50;19.52;;;21.00;62.30;;;;;;4995386;28;20529;-65
2022/08/17 00:35:22;;;;;;;25.60;23.33;;;20.90;62.60;;;;;;4998733;28;20061;-65
2022/08/17 00:37:49;;;;;;;21.65;19.65;;;20.90;63.20;;;;;;4995403;28;20560;-65
2022/08/17 00:40:15;;;;;;;22.42;20.42;;;20.90;63.30;;;;;;4998410;28;20074;-65
2022/08/17 00:42:43;;;;;;;23.02;20.85;;;20.80;63.40;;;;;;5016024;28;20054;-65
2022/08/17 00:45:12;;;;;;;20.88;18.98;;;20.80;63.40;;;;;;5014126;28;20092;-69
2022/08/17 00:47:38;;;;;;;21.88;19.85;;;20.80;63.50;;;;;;5000878;28;20045;-67
2022/08/17 00:50:08;;;;;;;20.90;18.90;;;20.80;63.40;;;;;;5014636;28;20498;-69
2022/08/17 00:52:38;;;;;;;24.52;22.00;;;20.80;63.40;;;;;;4994775;28;20118;-66
2022/08/17 00:55:06;;;;;;;22.75;20.65;;;20.70;63.40;;;;;;5010699;28;20425;-68
2022/08/17 00:57:42;;;;;;;21.70;19.63;;;20.70;63.60;;;;;;5007510;28;20050;-66
2022/08/17 01:00:25;;;;;;;21.95;19.85;;;20.70;63.60;;;;;;5013022;28;20125;-69
2022/08/17 01:02:57;;;;;;;22.30;20.30;;;20.70;63.70;;;;;;4998796;28;20034;-66
2022/08/17 01:05:26;;;;;;;23.23;21.02;;;20.60;63.70;;;;;;4997830;28;20046;-66
2022/08/17 01:07:53;;;;;;;20.75;18.98;;;20.60;63.70;;;;;;5011828;28;20186;-66
2022/08/17 01:10:21;;;;;;;23.58;21.42;;;20.60;63.70;;;;;;5019982;28;20076;-68
2022/08/17 01:12:48;;;;;;;20.42;18.63;;;20.60;63.90;;;;;;4995832;28;20053;-69
2022/08/17 01:15:15;;;;;;;21.17;19.05;;;20.60;63.70;;;;;;5007153;28;20041;-66
2022/08/17 01:17:41;;;;;;;20.13;18.27;;;20.60;64.10;;;;;;5014800;28;20052;-66
2022/08/17 01:20:07;;;;;;;22.17;20.10;;;20.50;63.60;;;;;;5014075;28;20456;-68
2022/08/17 01:22:33;;;;;;;21.88;19.98;;;20.50;63.70;;;;;;5000480;28;20046;-69
2022/08/17 01:25:01;;;;;;;23.83;21.73;;;20.50;63.90;;;;;;5014086;28;20095;-70
2022/08/17 01:27:28;;;;;;;21.92;19.92;;;20.50;64.00;;;;;;4999611;28;20042;-68
2022/08/17 01:29:58;;;;;;;22.65;20.52;;;20.50;64.00;;;;;;4975773;28;20050;-67
2022/08/17 01:32:25;;;;;;;22.65;20.55;;;20.40;63.90;;;;;;5008811;28;20043;-69
2022/08/17 01:34:51;;;;;;;22.95;20.95;;;20.40;63.90;;;;;;4994048;28;20493;-65
2022/08/17 01:37:26;;;;;;;24.67;22.13;;;20.40;63.90;;;;;;4994014;28;20051;-65
2022/08/17 01:39:58;;;;;;;21.88;19.88;;;20.40;64.00;;;;;;4982823;28;20078;-69
2022/08/17 01:42:36;;;;;;;21.63;19.63;;;20.40;64.10;;;;;;4988829;28;20042;-65
2022/08/17 01:45:07;;;;;;;20.13;18.33;;;20.40;64.10;;;;;;4979666;28;20394;-65
2022/08/17 01:47:34;;;;;;;19.55;17.83;;;20.30;64.20;;;;;;4975585;28;20128;-66
2022/08/17 01:50:15;;;;;;;20.73;18.92;;;20.30;64.10;;;;;;4992766;28;20182;-66
2022/08/17 01:52:44;;;;;;;17.48;15.85;;;20.30;64.10;;;;;;4989732;28;20049;-68
2022/08/17 01:55:11;;;;;;;19.05;17.25;;;20.20;64.10;;;;;;4981783;28;20382;-68
2022/08/17 01:57:37;;;;;;;19.65;17.95;;;20.20;64.10;;;;;;4994328;28;20077;-66
2022/08/17 02:00:08;;;;;;;18.02;16.52;;;20.20;64.20;;;;;;4991454;28;20062;-66
2022/08/17 02:02:33;;;;;;;17.17;15.48;;;20.20;64.30;;;;;;4975131;28;20042;-66
2022/08/17 02:04:59;;;;;;;20.48;18.58;;;20.10;64.20;;;;;;4975573;28;20047;-65
2022/08/17 02:07:25;;;;;;;18.38;16.83;;;20.10;64.40;;;;;;4974201;28;20442;-66
2022/08/17 02:09:50;;;;;;;30.80;27.58;;;20.10;64.60;;;;;;5008773;28;20121;-66
2022/08/17 02:12:16;;;;;;;28.75;26.13;;;20.00;65.30;;;;;;4993659;28;20049;-66
2022/08/17 02:14:42;;;;;;;31.27;28.23;;;19.90;66.10;;;;;;4991072;28;20097;-66
2022/08/17 02:17:08;;;;;;;29.08;26.38;;;19.80;66.80;;;;;;4994470;28;20497;-66
2022/08/17 02:19:33;;;;;;;28.88;26.23;;;19.80;67.40;;;;;;4993677;28;20070;-66
2022/08/17 02:21:59;;;;;;;25.15;22.75;;;19.70;67.80;;;;;;4980775;28;20083;-66
2022/08/17 02:24:30;;;;;;;24.27;22.05;;;19.60;68.00;;;;;;4986794;28;20046;-68
2022/08/17 02:26:56;;;;;;;25.48;22.75;;;19.60;67.90;;;;;;4975402;28;20386;-69
2022/08/17 02:29:22;;;;;;;25.00;22.70;;;19.60;67.90;;;;;;4974911;28;20511;-65
2022/08/17 02:31:48;;;;;;;30.05;27.25;;;19.60;67.90;;;;;;4989921;28;20042;-65
2022/08/17 02:34:14;;;;;;;27.70;24.90;;;19.60;68.20;;;;;;4987458;28;20039;-65
2022/08/17 02:36:40;;;;;;;29.05;26.13;;;19.60;68.50;;;;;;4975976;28;20046;-65
2022/08/17 02:39:08;;;;;;;26.25;23.75;;;19.60;68.60;;;;;;5005883;28;20426;-65
2022/08/17 02:41:35;;;;;;;28.70;25.98;;;19.60;68.70;;;;;;4988824;28;20489;-65
2022/08/17 02:44:01;;;;;;;27.67;24.98;;;19.60;68.70;;;;;;4993161;28;20378;-65
2022/08/17 02:46:27;;;;;;;26.00;23.40;;;19.60;68.70;;;;;;4992407;28;20234;-65
2022/08/17 02:48:53;;;;;;;28.52;25.77;;;19.60;68.70;;;;;;4990309;28;20041;-65
2022/08/17 02:51:18;;;;;;;28.25;25.58;;;19.60;68.70;;;;;;4986557;28;20500;-65
2022/08/17 02:53:45;;;;;;;29.30;26.45;;;19.70;68.80;;;;;;4989624;28;20038;-65
2022/08/17 02:56:11;;;;;;;30.27;27.23;;;19.70;68.70;;;;;;4975419;28;20047;-66
2022/08/17 02:58:36;;;;;;;30.42;27.33;;;19.70;68.60;;;;;;4973272;28;20047;-65
2022/08/17 03:01:05;;;;;;;29.48;26.65;;;19.70;68.60;;;;;;4973537;28;20473;-68
2022/08/17 03:03:31;;;;;;;29.17;26.35;;;19.70;68.60;;;;;;4985743;28;20405;-69
2022/08/17 03:05:56;;;;;;;29.15;26.20;;;19.70;68.70;;;;;;4977171;28;20031;-69
2022/08/17 03:08:22;;;;;;;28.67;25.85;;;19.70;68.70;;;;;;4974405;28;20634;-69
2022/08/17 03:10:49;;;;;;;29.67;26.90;;;19.70;68.80;;;;;;4980132;28;20045;-69
2022/08/17 03:13:15;;;;;;;27.65;25.05;;;19.80;68.90;;;;;;4991749;28;20073;-69
2022/08/17 03:15:44;;;;;;;26.13;23.63;;;19.70;69.30;;;;;;4991863;28;20042;-69
2022/08/17 03:18:11;;;;;;;28.70;25.85;;;19.80;68.90;;;;;;4974663;28;20042;-69
2022/08/17 03:20:37;;;;;;;26.85;24.15;;;19.80;68.90;;;;;;4978733;28;20034;-69
2022/08/17 03:23:03;;;;;;;27.90;25.08;;;19.70;68.90;;;;;;4992325;28;20053;-66
2022/08/17 03:25:36;;;;;;;33.63;30.23;;;19.70;68.90;;;;;;4992838;28;20042;-66
2022/08/17 03:28:03;;;;;;;28.67;25.98;;;19.80;69.10;;;;;;4991570;28;20225;-68
2022/08/17 03:30:30;;;;;;;30.30;27.42;;;19.80;69.00;;;;;;4987178;28;20043;-68
2022/08/17 03:33:01;;;;;;;30.15;27.20;;;19.80;69.00;;;;;;4957021;28;20445;-66
2022/08/17 03:35:30;;;;;;;29.75;26.95;;;19.80;69.00;;;;;;4974441;28;20137;-66
2022/08/17 03:37:56;;;;;;;31.73;28.70;;;19.80;69.00;;;;;;4973821;28;20114;-66
2022/08/17 03:40:22;;;;;;;30.13;27.33;;;19.80;68.90;;;;;;4977000;28;20053;-66
2022/08/17 03:42:52;;;;;;;28.20;25.67;;;19.80;68.80;;;;;;4991756;28;20050;-68
2022/08/17 03:56:40;;;;;;;27.42;24.95;;;19.80;68.60;;;;;;4973130;28;20047;-70
2022/08/17 03:56:43;;;;;;;23.05;21.15;;;19.80;68.20;;;;;;4991784;28;20096;-70
2022/08/17 03:59:18;;;;;;;19.98;18.27;;;19.80;68.20;;;;;;4991727;28;20080;-68
2022/08/17 04:01:45;;;;;;;23.08;21.05;;;19.80;68.00;;;;;;4988057;28;20070;-66
2022/08/17 04:04:12;;;;;;;20.20;18.40;;;19.80;68.00;;;;;;4986809;28;20042;-66
2022/08/17 04:06:38;;;;;;;19.60;18.00;;;19.80;67.90;;;;;;4976375;28;20113;-66
2022/08/17 04:09:04;;;;;;;19.90;18.30;;;19.80;67.80;;;;;;4992065;28;20050;-66
2022/08/17 04:11:31;;;;;;;17.98;16.48;;;19.80;67.70;;;;;;4990129;28;20068;-66
2022/08/17 04:13:56;;;;;;;19.80;18.20;;;19.80;67.60;;;;;;4988627;28;20034;-66
2022/08/17 04:16:24;;;;;;;21.58;19.77;;;19.80;67.70;;;;;;4956273;28;20046;-65
2022/08/17 04:18:51;;;;;;;23.42;21.48;;;19.80;67.70;;;;;;4972340;28;20481;-65
2022/08/17 04:21:17;;;;;;;21.83;20.02;;;19.80;67.90;;;;;;4973438;28;20050;-66
2022/08/17 04:23:43;;;;;;;24.67;22.70;;;19.80;68.00;;;;;;4974106;28;20042;-65
2022/08/17 04:26:09;;;;;;;22.85;21.02;;;19.80;68.30;;;;;;4972253;28;20584;-65
2022/08/17 04:28:35;;;;;;;23.98;21.88;;;19.80;68.40;;;;;;5007617;28;20108;-65
2022/08/17 04:31:00;;;;;;;20.80;19.10;;;19.80;68.70;;;;;;4982508;28;20541;-67
2022/08/17 04:33:28;;;;;;;24.20;22.20;;;19.80;68.70;;;;;;4976747;28;20042;-69
2022/08/17 04:36:01;;;;;;;24.60;22.60;;;19.80;68.80;;;;;;4992776;28;20386;-69
2022/08/17 04:38:30;;;;;;;27.50;25.13;;;19.80;69.00;;;;;;4991381;28;20047;-69
2022/08/17 04:43:44;;;;;;;23.30;21.27;;;19.80;69.10;;;;;;4992959;28;20058;-69
2022/08/17 04:46:13;;;;;;;27.90;25.35;;;19.80;69.20;;;;;;4976973;28;20051;-66
2022/08/17 04:48:45;;;;;;;24.05;21.90;;;19.70;69.40;;;;;;4975883;28;20042;-66
2022/08/17 04:51:16;;;;;;;25.80;23.50;;;19.80;69.40;;;;;;4990981;28;20485;-66
2022/08/17 04:53:47;;;;;;;25.52;23.33;;;19.70;69.50;;;;;;5010596;28;20042;-66
2022/08/17 04:56:14;;;;;;;26.33;24.00;;;19.70;69.50;;;;;;4995174;28;20038;-65
2022/08/17 04:58:41;;;;;;;27.60;24.88;;;19.70;69.90;;;;;;4994646;28;20031;-65
2022/08/17 05:01:07;;;;;;;27.25;24.85;;;19.70;70.00;;;;;;4986478;28;20046;-65
2022/08/17 05:03:33;;;;;;;26.70;24.33;;;19.70;70.10;;;;;;4975146;28;20065;-65
2022/08/17 05:05:59;;;;;;;28.98;26.42;;;19.70;70.10;;;;;;4974946;28;20097;-66
2022/08/17 05:08:25;;;;;;;28.48;25.90;;;19.70;70.30;;;;;;4975314;28;20050;-65
2022/08/17 05:10:50;;;;;;;25.33;23.02;;;19.70;70.40;;;;;;4977417;28;20039;-65
2022/08/17 05:13:22;;;;;;;26.85;24.40;;;19.70;70.40;;;;;;4974912;28;20043;-66
2022/08/17 05:15:51;;;;;;;22.83;20.83;;;19.80;70.60;;;;;;4975088;28;20035;-69
2022/08/17 05:18:17;;;;;;;22.48;20.27;;;19.80;70.60;;;;;;4991181;28;20034;-69
2022/08/17 05:20:43;;;;;;;22.35;20.35;;;19.70;70.40;;;;;;4993430;28;20054;-69
2022/08/17 05:23:13;;;;;;;20.67;18.90;;;19.70;70.40;;;;;;4994414;28;20088;-68
2022/08/17 05:25:44;;;;;;;20.73;18.98;;;19.80;70.50;;;;;;4991176;28;20050;-64
2022/08/17 05:28:10;;;;;;;20.30;18.50;;;19.80;70.40;;;;;;4989284;28;20058;-64
2022/08/17 05:30:37;;;;;;;21.17;19.20;;;19.80;70.30;;;;;;4995171;28;20057;-69
2022/08/17 05:33:12;;;;;;;19.27;17.58;;;19.80;70.20;;;;;;4994439;28;20042;-69
2022/08/17 05:35:41;;;;;;;21.00;19.30;;;19.90;70.30;;;;;;4994399;28;20042;-68
2022/08/17 05:38:08;;;;;;;19.38;17.65;;;19.90;70.20;;;;;;4994005;28;20039;-69
2022/08/17 05:40:35;;;;;;;22.00;19.92;;;19.90;70.20;;;;;;4987806;28;20381;-69
2022/08/17 05:43:21;;;;;;;23.08;21.08;;;19.90;70.20;;;;;;4994049;28;20054;-69
2022/08/17 05:45:56;;;;;;;24.70;22.50;;;20.00;70.10;;;;;;4996026;28;20042;-69
2022/08/17 05:48:23;;;;;;;30.58;27.77;;;20.00;70.20;;;;;;4983399;28;20053;-69
2022/08/17 05:51:19;;;;;;;31.80;28.92;;;20.00;70.50;;;;;;4986571;28;20082;-69
2022/08/17 05:54:04;;;;;;;26.48;24.17;;;20.00;70.80;;;;;;4988569;28;20043;-69
2022/08/17 05:56:52;;;;;;;26.38;23.92;;;20.00;70.60;;;;;;4974387;28;20042;-68
2022/08/17 05:59:52;;;;;;;21.95;20.15;;;20.10;70.60;;;;;;4965889;28;20058;-69
2022/08/17 06:02:35;;;;;;;28.20;25.55;;;20.00;70.20;;;;;;4992254;28;20486;-69
2022/08/17 06:05:25;;;;;;;32.05;29.08;;;20.00;70.50;;;;;;4993600;28;20077;-69
2022/08/17 06:08:01;;;;;;;24.75;22.45;;;20.10;70.80;;;;;;4993880;28;20397;-70
2022/08/17 06:10:35;;;;;;;27.60;24.95;;;20.10;70.90;;;;;;4993146;28;20117;-66
2022/08/17 06:13:19;;;;;;;;;;;20.10;71.00;;;;;;4994648;28;20130;-68
2022/08/17 06:15:54;;;;;;;32.50;29.43;;;20.10;70.40;;;;;;4989073;28;19917;-69
2022/08/17 06:18:24;;;;;;;33.95;30.73;;;20.10;71.00;;;;;;4982365;28;20061;-70
2022/08/17 06:20:55;;;;;;;32.13;29.10;;;20.10;71.20;;;;;;4984643;28;20031;-68
2022/08/17 06:23:33;;;;;;;32.63;29.77;;;20.20;71.40;;;;;;4975013;28;20042;-69
2022/08/17 06:26:04;;;;;;;33.45;30.45;;;20.20;71.50;;;;;;4975319;28;20057;-69
2022/08/17 06:28:41;;;;;;;34.03;30.85;;;20.30;71.80;;;;;;4973342;28;20058;-69
2022/08/17 06:31:20;;;;;;;36.08;32.70;;;20.30;72.20;;;;;;4976866;28;20049;-66
2022/08/17 06:33:46;;;;;;;25.50;23.27;;;20.40;72.40;;;;;;4973321;28;20502;-66
2022/08/17 06:36:39;;;;;;;28.45;25.85;;;20.40;72.10;;;;;;4973488;28;20555;-65
2022/08/17 06:39:31;;;;;;;32.70;29.60;;;20.50;71.70;;;;;;4973489;28;20461;-68
2022/08/17 06:42:12;;;;;;;32.58;29.63;;;20.50;71.60;;;;;;4993032;28;20277;-65
2022/08/17 06:44:45;;;;;;;31.77;28.77;;;20.60;71.70;;;;;;4992713;28;20038;-65
2022/08/17 06:47:32;;;;;;;30.17;27.48;;;20.60;71.60;;;;;;4994105;28;20038;-65
2022/08/17 06:50:22;;;;;;;29.65;26.95;;;20.60;71.30;;;;;;4987435;28;20517;-65
2022/08/17 06:53:04;;;;;;;35.42;31.88;;;20.60;71.10;;;;;;4974296;28;20047;-64
2022/08/17 06:55:43;;;;;;;26.73;24.30;;;20.70;71.60;;;;;;4973303;28;20054;-64
2022/08/17 06:58:12;;;;;;;34.30;31.00;;;20.70;71.90;;;;;;4973130;28;20046;-64
2022/08/17 07:00:41;;;;;;;24.20;22.00;;;20.70;71.60;;;;;;4973923;28;20043;-65
2022/08/17 07:03:07;;;;;;;23.45;21.35;;;20.70;71.50;;;;;;4973072;28;20076;-64
2022/08/17 07:05:36;;;;;;;23.83;21.40;;;20.70;71.30;;;;;;4973266;28;20053;-64
2022/08/17 07:08:39;;;;;;;23.50;21.42;;;20.80;71.30;;;;;;4973047;28;20057;-64
2022/08/17 07:11:46;;;;;;;32.35;29.10;;;20.80;70.90;;;;;;4974242;28;20051;-64
2022/08/17 07:14:36;;;;;;;31.92;28.75;;;20.80;71.20;;;;;;4974223;28;20113;-64
2022/08/17 07:17:23;;;;;;;31.15;28.02;;;20.80;71.50;;;;;;4974222;28;20053;-64
2022/08/17 07:19:52;;;;;;;28.90;26.02;;;20.80;71.40;;;;;;4975037;28;20034;-64
2022/08/17 07:22:40;;;;;;;32.97;29.90;;;20.70;71.50;;;;;;4974334;28;20089;-67
2022/08/17 07:25:11;;;;;;;33.42;30.02;;;20.70;71.70;;;;;;4974329;28;20082;-67
2022/08/17 07:27:40;;;;;;;37.03;33.45;;;20.70;72.10;;;;;;4973866;28;20043;-67
2022/08/17 07:30:07;;;;;;;29.50;26.52;;;20.70;72.20;;;;;;4975091;28;20043;-67
2022/08/17 07:32:37;;;;;;;34.17;30.92;;;20.70;72.20;;;;;;4972593;28;20051;-67
2022/08/17 07:35:07;;;;;;;36.60;33.08;;;20.60;72.30;;;;;;4972974;28;20501;-67
2022/08/17 07:37:37;;;;;;;38.47;34.78;;;20.60;72.60;;;;;;4972665;28;20034;-67
2022/08/17 07:40:33;;;;;;;39.13;35.22;;;20.50;72.70;;;;;;4973722;28;20049;-68
2022/08/17 07:43:12;;;;;;;36.28;32.85;;;20.50;72.90;;;;;;4972967;28;20050;-69
2022/08/17 07:48:48;;;;;;;33.67;30.48;;;20.50;73.20;;;;;;4972512;28;20136;-68
2022/08/17 07:51:16;;;;;;;29.50;26.80;;;20.50;73.20;;;;;;4974902;28;20050;-68
2022/08/17 07:53:44;;;;;;;34.08;30.77;;;20.50;73.10;;;;;;4972429;28;20050;-68
2022/08/17 07:56:14;;;;;;;31.45;28.55;;;20.50;73.10;;;;;;4956583;28;20050;-69
2022/08/17 07:58:41;;;;;;;35.53;31.83;;;20.50;73.10;;;;;;4972651;28;20482;-69
2022/08/17 08:01:17;;;;;;;33.42;30.08;;;20.50;73.20;;;;;;4974892;28;20054;-69
2022/08/17 08:03:44;;;;;;;33.20;30.20;;;20.50;73.20;;;;;;4972495;28;20050;-69
2022/08/17 08:06:20;;;;;;;38.03;34.33;;;20.50;73.30;;;;;;4972903;28;20057;-69
2022/08/17 08:08:52;;;;;;;37.65;34.05;;;20.60;73.70;;;;;;4972466;28;20055;-69
2022/08/17 08:11:31;;;;;;;37.65;34.00;;;20.60;73.80;;;;;;4976099;28;20049;-69
2022/08/17 08:14:19;;;;;;;31.30;28.38;;;20.60;74.10;;;;;;4977172;28;20078;-66
2022/08/17 08:17:01;;;;;;;31.48;28.25;;;20.60;74.10;;;;;;4976091;28;20130;-66
2022/08/17 08:19:29;;;;;;;35.13;31.70;;;20.60;74.50;;;;;;4977213;28;20038;-65
2022/08/17 08:22:17;;;;;;;40.78;36.95;;;20.70;75.20;;;;;;4978278;28;20051;-66
2022/08/17 08:25:01;;;;;;;42.63;38.28;;;20.70;75.60;;;;;;4975926;28;20070;-66
2022/08/17 08:27:43;;;;;;;32.13;29.15;;;20.80;75.50;;;;;;4977228;28;20042;-66
2022/08/17 08:30:15;;;;;;;37.80;34.20;;;20.80;75.50;;;;;;4976727;28;20047;-66
2022/08/17 08:32:56;;;;;;;40.50;36.58;;;20.90;75.40;;;;;;4976848;28;20043;-66
2022/08/17 08:35:29;;;;;;;39.50;35.70;;;20.90;75.30;;;;;;4975735;28;20047;-65
2022/08/17 08:38:06;;;;;;;39.30;35.33;;;21.00;75.00;;;;;;4975934;28;20487;-65
2022/08/17 08:40:50;;;;;;;39.80;35.85;;;21.00;74.50;;;;;;4976686;28;20077;-65
2022/08/17 08:43:34;;;;;;;41.60;37.40;;;21.00;74.30;;;;;;4976757;28;20367;-65
2022/08/17 08:46:35;;;;;;;35.67;32.30;;;21.00;74.20;;;;;;4959350;28;20490;-65
2022/08/17 08:49:15;;;;;;;39.28;35.38;;;21.00;74.20;;;;;;4975679;28;20047;-65
2022/08/17 08:51:52;;;;;;;35.20;32.00;;;21.00;74.20;;;;;;4976712;28;20464;-65
2022/08/17 08:54:57;;;;;;;30.98;28.20;;;21.00;74.10;;;;;;4975303;28;20126;-65
2022/08/17 08:57:31;;;;;;;39.42;35.70;;;21.00;74.00;;;;;;4975554;28;20043;-65
2022/08/17 09:00:17;;;;;;;36.28;32.83;;;21.00;74.10;;;;;;4976355;28;20046;-65
2022/08/17 09:02:52;;;;;;;34.00;30.80;;;21.10;73.80;;;;;;4975609;28;20125;-65
2022/08/17 09:05:24;;;;;;;34.92;31.52;;;21.10;73.60;;;;;;4976378;28;20042;-65
2022/08/17 09:08:05;;;;;;;33.92;30.90;;;21.20;73.50;;;;;;4959286;28;20437;-65
2022/08/17 09:10:56;;;;;;;29.75;27.08;;;21.20;73.50;;;;;;4977342;28;20042;-65
2022/08/17 09:13:50;;;;;;;33.55;30.48;;;21.20;73.20;;;;;;4976727;28;20058;-65
2022/08/17 09:16:21;;;;;;;35.20;31.88;;;21.30;73.10;;;;;;4979422;28;20043;-65
2022/08/17 09:18:52;;;;;;;32.17;29.35;;;21.30;73.30;;;;;;4976377;28;20047;-65
2022/08/17 09:21:53;;;;;;;27.20;24.63;;;21.40;73.10;;;;;;4985006;28;20042;-65
2022/08/17 09:24:34;;;;;;;31.63;28.85;;;21.50;72.60;;;;;;4957999;28;20047;-65
2022/08/17 09:27:13;;;;;;;32.33;29.42;;;21.60;72.20;;;;;;4982045;28;20039;-65
2022/08/17 09:29:46;;;;;;;30.50;27.92;;;21.60;72.00;;;;;;4976844;28;20509;-64
2022/08/17 09:32:23;;;;;;;31.15;28.40;;;21.70;72.20;;;;;;4975998;28;20045;-66
2022/08/17 09:35:13;;;;;;;29.90;27.23;;;21.80;72.00;;;;;;4975853;28;20381;-66
2022/08/17 09:37:50;;;;;;;30.08;27.23;;;21.80;71.60;;;;;;4976024;28;20509;-65
2022/08/17 09:40:51;;;;;;;32.83;29.95;;;21.90;71.50;;;;;;4975919;28;20062;-65
2022/08/17 09:43:42;;;;;;;28.20;25.80;;;22.00;70.90;;;;;;4974179;28;20054;-65
2022/08/17 09:46:25;;;;;;;33.40;30.40;;;22.00;70.80;;;;;;4975708;28;20046;-65
2022/08/17 09:49:06;;;;;;;29.65;26.98;;;22.10;70.60;;;;;;4980207;28;20100;-65
2022/08/17 09:51:34;;;;;;;27.35;24.92;;;22.10;70.10;;;;;;4964491;28;20052;-66
2022/08/17 09:54:01;;;;;;;25.00;22.88;;;22.00;69.20;;;;;;4976092;28;20122;-67
2022/08/17 09:56:30;;;;;;;25.17;22.95;;;22.00;68.90;;;;;;4985577;28;20042;-68
2022/08/17 09:59:31;;;;;;;22.70;20.70;;;22.00;68.70;;;;;;4993637;28;20044;-68
2022/08/17 10:02:21;;;;;;;22.27;20.35;;;22.00;68.20;;;;;;4937899;29;20038;-68
2022/08/17 10:04:55;;;;;;;25.00;20.92;;;22.00;68.40;;;;;;4972623;28;20065;-68
2022/08/17 10:07:30;;;;;;;23.05;21.08;;;22.00;68.90;;;;;;4973956;28;20494;-68
2022/08/17 10:10:25;;;;;;;24.38;22.17;;;22.00;69.10;;;;;;4977091;28;20114;-68
2022/08/17 10:13:05;;;;;;;24.10;21.80;;;22.00;69.10;;;;;;4968849;28;20130;-68
2022/08/17 10:15:39;;;;;;;24.05;21.98;;;22.00;69.10;;;;;;4973903;28;20051;-68
2022/08/17 10:18:11;;;;;;;24.35;22.10;;;22.00;69.40;;;;;;4977568;28;20042;-68
2022/08/17 10:20:36;;;;;;;23.35;21.45;;;22.10;69.50;;;;;;4984220;28;20077;-68
2022/08/17 10:26:14;;;;;;;23.50;21.42;;;22.20;69.70;;;;;;4994556;28;20397;-68
2022/08/17 10:28:58;;;;;;;24.88;22.58;;;22.20;69.70;;;;;;4991789;28;20525;-68
2022/08/17 10:31:27;;;;;;;23.88;21.73;;;22.20;69.60;;;;;;4978494;28;20545;-68
2022/08/17 10:34:02;;;;;;;23.90;21.75;;;22.20;69.40;;;;;;4974340;28;20042;-69
2022/08/17 10:36:47;;;;;;;25.80;23.42;;;22.30;69.40;;;;;;4974945;28;20039;-69
2022/08/17 10:39:29;;;;;;;25.88;23.63;;;22.30;69.60;;;;;;4974678;28;20046;-69
2022/08/17 10:42:01;;;;;;;27.27;24.80;;;22.30;70.00;;;;;;4987645;28;20049;-69
2022/08/17 10:44:49;;;;;;;28.95;26.48;;;22.40;70.40;;;;;;5006208;28;20080;-66
2022/08/17 10:47:17;;;;;;;29.58;26.98;;;22.40;70.80;;;;;;4989942;28;20478;-66
2022/08/17 10:49:52;;;;;;;30.55;27.88;;;22.50;71.00;;;;;;4992475;28;20375;-66
2022/08/17 10:52:26;;;;;;;29.85;27.15;;;22.50;71.10;;;;;;4993525;28;20057;-66
2022/08/17 10:54:55;;;;;;;31.25;28.52;;;22.60;71.40;;;;;;4986348;28;20092;-66
2022/08/17 10:57:33;;;;;;;32.10;29.33;;;22.80;71.70;;;;;;4988563;28;20421;-66
2022/08/17 11:00:09;;;;;;;32.47;29.40;;;22.90;71.90;;;;;;4987875;28;20093;-66
2022/08/17 11:02:51;;;;;;;34.53;31.48;;;22.90;72.00;;;;;;4988192;28;20485;-66
2022/08/17 11:05:49;;;;;;;31.48;28.67;;;23.10;71.50;;;;;;4988732;28;20051;-66
2022/08/17 11:08:57;;;;;;;34.55;31.35;;;23.20;70.70;;;;;;4972755;28;20037;-64
2022/08/17 11:11:48;;;;;;;34.47;31.23;;;23.40;70.40;;;;;;4987849;28;20130;-64
2022/08/17 11:14:40;;;;;;;33.88;30.77;;;23.50;69.90;;;;;;5004142;28;20050;-65
2022/08/17 11:17:15;;;;;;;33.20;30.20;;;23.60;69.80;;;;;;4986252;28;20109;-64
2022/08/17 11:19:59;;;;;;;33.20;30.17;;;23.70;69.10;;;;;;4988444;28;20042;-64
2022/08/17 11:22:56;;;;;;;30.65;27.92;;;23.70;69.20;;;;;;4987188;28;20054;-65
2022/08/17 11:25:38;;;;;;;29.88;27.17;;;23.80;68.40;;;;;;4989626;28;20042;-66
2022/08/17 11:28:24;;;;;;;30.13;27.42;;;23.80;68.30;;;;;;4987505;28;20543;-66
2022/08/17 11:30:51;;;;;;;31.70;28.70;;;23.90;67.70;;;;;;4986192;28;20049;-66
2022/08/17 11:33:54;;;;;;;30.95;28.15;;;23.90;67.80;;;;;;4988587;28;20456;-66
2022/08/17 11:36:45;;;;;;;29.88;27.02;;;23.90;67.30;;;;;;4972582;28;20049;-65
2022/08/17 11:39:32;;;;;;;27.27;24.88;;;24.00;67.30;;;;;;4988162;28;20061;-65
2022/08/17 11:42:42;;;;;;;27.90;25.33;;;24.00;67.00;;;;;;4987716;28;20057;-65
2022/08/17 11:45:35;;;;;;;28.52;25.92;;;24.10;67.10;;;;;;4989666;28;20081;-65
2022/08/17 11:51:54;;;;;;;26.30;23.80;;;24.20;66.00;;;;;;4966984;28;20177;-65
2022/08/17 11:54:29;;;;;;;29.27;26.55;;;24.20;65.60;;;;;;4991726;28;20437;-66
2022/08/17 11:56:57;;;;;;;29.48;26.48;;;24.20;64.90;;;;;;4992354;28;20046;-65
2022/08/17 11:59:32;;;;;;;30.77;27.73;;;24.20;64.70;;;;;;4990681;28;20041;-65
2022/08/17 12:02:30;;;;;;;25.45;23.05;;;24.30;64.50;;;;;;4975599;28;20042;-65
2022/08/17 12:05:15;;;;;;;29.60;26.83;;;24.30;64.60;;;;;;4991198;28;20042;-65
2022/08/17 12:07:47;;;;;;;27.05;24.48;;;24.30;64.00;;;;;;4993633;28;20370;-65
2022/08/17 12:10:18;;;;;;;27.20;24.90;;;24.20;64.30;;;;;;4992552;28;20363;-66
2022/08/17 12:12:45;;;;;;;25.83;23.40;;;24.20;64.60;;;;;;4991459;28;20453;-65
2022/08/17 12:15:24;;;;;;;26.38;23.77;;;24.20;64.00;;;;;;4990647;28;20038;-65
2022/08/17 12:17:55;;;;;;;27.13;24.52;;;24.20;63.60;;;;;;4992306;28;20077;-65
2022/08/17 12:20:39;;;;;;;23.77;21.40;;;24.20;63.60;;;;;;4991483;28;20096;-65
2022/08/17 12:23:07;;;;;;;;;;;24.20;63.70;;;;;;4991856;28;20042;-65
2022/08/17 12:25:42;;;;;;;22.80;20.73;;;24.20;64.10;;;;;;4992763;28;20008;-65
2022/08/17 12:28:21;;;;;;;25.30;22.88;;;24.20;64.00;;;;;;4974401;28;20050;-66
2022/08/17 12:30:49;;;;;;;23.80;21.70;;;24.20;64.10;;;;;;4991595;28;20077;-65
2022/08/17 12:33:18;;;;;;;24.95;22.48;;;24.20;64.70;;;;;;4990689;28;20128;-65
2022/08/17 12:35:45;;;;;;;22.25;20.23;;;24.20;64.20;;;;;;5007941;28;20093;-65
2022/08/17 12:38:14;;;;;;;20.10;18.40;;;24.20;64.30;;;;;;4991363;28;20045;-65
2022/08/17 12:40:53;;;;;;;22.30;20.20;;;24.20;63.90;;;;;;4974779;28;20034;-65
2022/08/17 12:43:21;;;;;;;21.85;20.00;;;24.20;63.90;;;;;;4990324;28;20482;-65
2022/08/17 12:45:56;;;;;;;21.20;19.10;;;24.20;64.00;;;;;;4992557;28;20038;-65
2022/08/17 12:48:24;;;;;;;21.55;19.52;;;24.20;63.70;;;;;;4991496;28;20070;-65
2022/08/17 12:50:51;;;;;;;21.98;19.90;;;24.20;63.40;;;;;;4991092;28;20038;-65
2022/08/17 12:53:26;;;;;;;22.02;19.90;;;24.20;63.30;;;;;;4989657;28;20129;-65
2022/08/17 12:55:53;;;;;;;20.95;18.92;;;24.20;63.20;;;;;;4992377;28;20034;-65
2022/08/17 12:58:52;;;;;;;20.25;18.30;;;24.20;63.20;;;;;;4991512;28;20046;-65
2022/08/17 13:01:19;;;;;;;18.80;17.05;;;24.20;63.70;;;;;;4990360;28;20100;-65
2022/08/17 13:03:48;;;;;;;17.17;15.57;;;24.20;63.30;;;;;;4991004;28;20170;-65
2022/08/17 13:06:28;;;;;;;17.48;15.65;;;24.30;63.20;;;;;;4992256;28;20069;-64
2022/08/17 13:08:54;;;;;;;15.77;14.32;;;24.30;63.00;;;;;;4991463;28;20085;-65
2022/08/17 13:11:23;;;;;;;16.98;15.43;;;24.20;62.70;;;;;;4990502;28;20077;-65
2022/08/17 13:14:07;;;;;;;15.50;14.00;;;24.30;63.00;;;;;;4989912;28;20058;-65
2022/08/17 13:16:32;;;;;;;15.15;13.65;;;24.30;63.10;;;;;;4991006;28;20072;-65
2022/08/17 13:19:11;;;;;;;15.23;13.65;;;24.20;63.00;;;;;;4991254;28;20046;-64
2022/08/17 13:22:01;;;;;;;14.18;12.77;;;24.20;62.50;;;;;;4990958;28;20034;-65
2022/08/17 13:24:31;;;;;;;14.68;13.10;;;24.20;63.00;;;;;;4991100;28;20093;-65
2022/08/17 13:27:00;;;;;;;15.38;13.98;;;24.10;62.70;;;;;;4990851;28;20038;-65
2022/08/17 13:29:31;;;;;;;15.02;13.63;;;24.10;62.70;;;;;;4989299;28;20082;-65